Time;durP1;ratioP1;P1;durP2;ratioP2;P2;SDS_P1;SDS_P2;PMS_P1;PMS_P2;Temp;Humidity;BMP_temperature;BMP_pressure;BME280_temperature;BME280_humidity;BME280_pressure;Samples;Min_cycle;Max_cycle;Signal;HPM_P1;HPM_P2
2022/07/09 00:00:39;;;;;;;7.55;3.30;;;15.60;99.90;;;;;;6215757;23;20016;-69
2022/07/09 00:03:05;;;;;;;9.60;3.65;;;15.60;99.90;;;;;;6189119;23;20074;-69
2022/07/09 00:05:30;;;;;;;7.90;3.42;;;15.60;99.90;;;;;;6216071;23;20091;-69
2022/07/09 00:07:56;;;;;;;7.80;2.80;;;15.60;99.90;;;;;;6217623;23;20027;-69
2022/07/09 00:10:22;;;;;;;6.13;3.00;;;15.60;99.90;;;;;;6217586;23;20025;-69
2022/07/09 00:12:47;;;;;;;6.18;2.53;;;15.60;99.90;;;;;;6217607;23;20422;-69
2022/07/09 00:15:13;;;;;;;7.25;3.92;;;15.60;99.90;;;;;;6190806;23;20038;-68
2022/07/09 00:17:39;;;;;;;4.50;3.15;;;15.50;99.90;;;;;;6217585;23;20515;-68
2022/07/09 00:20:05;;;;;;;7.97;3.53;;;15.60;99.90;;;;;;6190937;23;20016;-68
2022/07/09 00:22:34;;;;;;;5.65;3.45;;;15.60;99.90;;;;;;6190921;23;20102;-68
2022/07/09 00:25:01;;;;;;;6.22;4.45;;;15.60;99.90;;;;;;6190841;23;20354;-69
2022/07/09 00:27:27;;;;;;;8.15;4.30;;;15.60;99.90;;;;;;6217386;23;20016;-69
2022/07/09 00:29:52;;;;;;;11.45;4.35;;;15.60;99.90;;;;;;6190792;23;20023;-69
2022/07/09 00:32:18;;;;;;;6.78;3.58;;;15.50;99.90;;;;;;6217388;23;20048;-69
2022/07/09 00:34:44;;;;;;;8.45;3.75;;;15.50;99.90;;;;;;6217361;23;20442;-70
2022/07/09 00:37:10;;;;;;;8.40;3.58;;;15.50;99.90;;;;;;6190667;23;20027;-69
2022/07/09 00:39:35;;;;;;;8.15;4.22;;;15.50;99.90;;;;;;6190351;23;20013;-68
2022/07/09 00:42:11;;;;;;;9.75;4.43;;;15.50;99.90;;;;;;6217353;23;20017;-71
2022/07/09 00:44:38;;;;;;;7.72;4.82;;;15.50;99.90;;;;;;6217337;23;20021;-69
2022/07/09 00:47:06;;;;;;;6.53;3.65;;;15.50;99.90;;;;;;6190590;23;20023;-69
2022/07/09 00:49:37;;;;;;;8.75;4.28;;;15.50;99.90;;;;;;6217198;23;20091;-69
2022/07/09 00:52:06;;;;;;;7.95;3.80;;;15.50;99.90;;;;;;6217212;23;20162;-68
2022/07/09 00:54:33;;;;;;;8.20;4.22;;;15.50;99.90;;;;;;6216979;23;20143;-69
2022/07/09 00:56:59;;;;;;;7.20;3.40;;;15.50;99.90;;;;;;6217263;23;20017;-68
2022/07/09 00:59:25;;;;;;;6.07;3.42;;;15.50;99.90;;;;;;6217154;23;20462;-68
2022/07/09 01:01:51;;;;;;;9.60;4.55;;;15.50;99.90;;;;;;6216911;23;20474;-69
2022/07/09 01:04:17;;;;;;;7.95;4.38;;;15.50;99.90;;;;;;6165716;23;20338;-70
2022/07/09 01:06:43;;;;;;;10.82;4.45;;;15.50;99.90;;;;;;6190526;23;20016;-69
2022/07/09 01:09:09;;;;;;;9.15;4.60;;;15.60;99.90;;;;;;6216889;23;20058;-70
2022/07/09 01:11:35;;;;;;;;;;;15.60;99.90;;;;;;6217059;23;20466;-69
2022/07/09 01:14:01;;;;;;;8.45;5.07;;;15.60;99.90;;;;;;6189924;23;19919;-69
2022/07/09 01:16:31;;;;;;;12.05;5.25;;;15.60;99.90;;;;;;6216790;23;20378;-68
2022/07/09 01:18:57;;;;;;;10.98;5.32;;;15.60;99.90;;;;;;6216982;23;20091;-70
2022/07/09 01:21:23;;;;;;;10.52;5.32;;;15.60;99.90;;;;;;6216996;23;20051;-69
2022/07/09 01:23:50;;;;;;;11.40;5.55;;;15.60;99.90;;;;;;6190006;23;20075;-71
2022/07/09 01:26:16;;;;;;;12.48;6.28;;;15.60;99.90;;;;;;6216813;23;20021;-70
2022/07/09 01:28:41;;;;;;;9.02;5.25;;;15.70;99.90;;;;;;6216903;23;20016;-71
2022/07/09 01:31:07;;;;;;;14.70;6.60;;;15.60;99.90;;;;;;6190331;23;20040;-69
2022/07/09 01:33:33;;;;;;;9.75;6.00;;;15.60;99.90;;;;;;6190240;23;20016;-69
2022/07/09 01:35:59;;;;;;;11.00;6.32;;;15.70;99.90;;;;;;6216778;23;20016;-71
2022/07/09 01:38:25;;;;;;;13.55;6.40;;;15.60;99.90;;;;;;6216627;23;20016;-71
2022/07/09 01:40:50;;;;;;;10.80;6.22;;;15.70;99.90;;;;;;6216048;23;20479;-69
2022/07/09 01:43:16;;;;;;;11.23;5.97;;;15.70;99.90;;;;;;6216448;23;20099;-69
2022/07/09 01:45:42;;;;;;;10.38;5.53;;;15.70;99.90;;;;;;6216607;23;20108;-71
2022/07/09 01:48:08;;;;;;;9.73;5.85;;;15.70;99.90;;;;;;6190159;23;20096;-70
2022/07/09 01:50:34;;;;;;;15.40;5.80;;;15.70;99.90;;;;;;6216555;23;20023;-70
2022/07/09 01:52:59;;;;;;;11.23;6.03;;;15.70;99.90;;;;;;6216472;23;20091;-70
2022/07/09 01:55:25;;;;;;;10.07;6.70;;;15.70;99.90;;;;;;6216617;23;20017;-70
2022/07/09 01:57:50;;;;;;;11.60;6.50;;;15.70;99.90;;;;;;6189881;23;20024;-69
2022/07/09 02:00:18;;;;;;;13.60;6.22;;;15.70;99.90;;;;;;6216530;23;20012;-68
2022/07/09 02:02:44;;;;;;;13.13;6.13;;;15.70;99.90;;;;;;6216385;23;20016;-70
2022/07/09 02:05:10;;;;;;;13.80;7.20;;;15.70;99.90;;;;;;6216553;23;20017;-68
2022/07/09 02:07:35;;;;;;;18.60;7.65;;;16.10;99.90;;;;;;6216346;23;20071;-69
2022/07/09 02:10:02;;;;;;;14.73;6.97;;;15.70;99.90;;;;;;6216420;23;20020;-69
2022/07/09 02:12:28;;;;;;;17.05;7.80;;;15.70;99.90;;;;;;6216460;23;20059;-69
2022/07/09 02:14:54;;;;;;;10.82;7.10;;;15.60;99.90;;;;;;6189207;23;20021;-69
2022/07/09 02:17:20;;;;;;;10.55;7.40;;;15.60;99.90;;;;;;6216452;23;20056;-69
2022/07/09 02:19:45;;;;;;;18.85;8.75;;;15.70;99.90;;;;;;6189883;23;20147;-70
2022/07/09 02:22:11;;;;;;;16.60;8.85;;;15.60;99.90;;;;;;6216231;23;20016;-69
2022/07/09 02:24:37;;;;;;;19.75;7.85;;;15.70;99.90;;;;;;6189711;23;20072;-70
2022/07/09 02:27:02;;;;;;;15.30;7.80;;;15.70;99.90;;;;;;6216225;23;20385;-70
2022/07/09 02:29:28;;;;;;;14.27;7.82;;;15.70;99.90;;;;;;6189407;23;20450;-70
2022/07/09 02:31:55;;;;;;;14.20;8.38;;;15.60;99.90;;;;;;6189767;23;20017;-70
2022/07/09 02:34:21;;;;;;;16.77;8.75;;;15.60;99.90;;;;;;6216254;23;20039;-69
2022/07/09 02:36:47;;;;;;;16.25;8.00;;;15.60;99.90;;;;;;6216191;23;20020;-70
2022/07/09 02:39:13;;;;;;;13.93;8.10;;;15.60;99.90;;;;;;6189470;23;20100;-70
2022/07/09 02:41:38;;;;;;;17.67;8.60;;;15.60;99.90;;;;;;6216173;23;20320;-68
2022/07/09 02:44:04;;;;;;;12.95;7.97;;;15.60;99.90;;;;;;6216160;23;20027;-69
2022/07/09 02:46:30;;;;;;;16.35;8.38;;;15.60;99.90;;;;;;6216143;23;20075;-68
2022/07/09 02:48:55;;;;;;;15.20;8.32;;;15.60;99.90;;;;;;6164793;23;20024;-69
2022/07/09 02:51:21;;;;;;;17.90;8.55;;;15.60;99.90;;;;;;6216016;23;20016;-69
2022/07/09 02:53:47;;;;;;;14.65;8.32;;;15.60;99.90;;;;;;6189500;23;20024;-69
2022/07/09 02:56:12;;;;;;;15.55;8.48;;;15.60;99.90;;;;;;6189149;23;20020;-70
2022/07/09 02:58:38;;;;;;;15.50;7.53;;;15.60;99.90;;;;;;6216449;23;20099;-69
2022/07/09 03:01:07;;;;;;;20.73;8.23;;;15.60;99.90;;;;;;6189548;23;20012;-69
2022/07/09 03:03:36;;;;;;;16.98;8.85;;;15.60;99.90;;;;;;6215884;23;20012;-70
2022/07/09 03:06:02;;;;;;;19.13;8.95;;;15.60;99.90;;;;;;6189341;23;20013;-70
2022/07/09 03:08:28;;;;;;;17.45;10.50;;;15.50;99.90;;;;;;6164633;23;20446;-69
2022/07/09 03:10:54;;;;;;;17.92;8.43;;;15.50;99.90;;;;;;6215918;23;20020;-69
2022/07/09 03:13:20;;;;;;;13.70;8.38;;;15.50;99.90;;;;;;6215875;23;20520;-70
2022/07/09 03:15:46;;;;;;;16.02;7.32;;;15.50;99.90;;;;;;6215912;23;20059;-70
2022/07/09 03:18:11;;;;;;;14.43;8.20;;;15.70;99.90;;;;;;6215526;23;20016;-69
2022/07/09 03:20:37;;;;;;;24.77;9.95;;;15.50;99.90;;;;;;6215949;23;20017;-68
2022/07/09 03:23:06;;;;;;;13.98;8.38;;;15.60;99.90;;;;;;6189173;23;20093;-70
2022/07/09 03:25:32;;;;;;;17.83;9.15;;;15.60;99.90;;;;;;6215891;23;20055;-70
2022/07/09 03:27:58;;;;;;;16.92;7.53;;;15.50;99.90;;;;;;6215823;23;20016;-69
2022/07/09 03:30:23;;;;;;;15.45;8.27;;;15.60;99.90;;;;;;6189312;23;20017;-68
2022/07/09 03:32:50;;;;;;;17.38;8.77;;;15.60;99.90;;;;;;6215885;23;20385;-68
2022/07/09 03:35:16;;;;;;;18.23;9.75;;;15.60;99.90;;;;;;6189359;23;20020;-69
2022/07/09 03:37:42;;;;;;;12.52;7.88;;;15.60;99.90;;;;;;6189219;23;20021;-70
2022/07/09 03:40:08;;;;;;;17.85;9.30;;;15.60;99.90;;;;;;6216428;23;20062;-69
2022/07/09 03:42:34;;;;;;;17.77;8.15;;;15.50;99.90;;;;;;6190774;23;20021;-69
2022/07/09 03:45:00;;;;;;;20.67;9.40;;;15.50;99.90;;;;;;6217886;23;20087;-69
2022/07/09 03:47:25;;;;;;;11.98;7.78;;;15.60;99.90;;;;;;6217745;23;20016;-69
2022/07/09 03:49:51;;;;;;;16.48;8.52;;;15.50;99.90;;;;;;6217747;23;20031;-69
2022/07/09 03:52:17;;;;;;;17.52;9.10;;;15.50;99.90;;;;;;6217764;23;20016;-68
2022/07/09 03:54:43;;;;;;;16.33;9.10;;;15.50;99.90;;;;;;6191123;23;20430;-70
2022/07/09 03:57:09;;;;;;;18.40;8.88;;;15.80;99.90;;;;;;6217680;23;20020;-69
2022/07/09 03:59:35;;;;;;;;;;;15.50;99.90;;;;;;6218189;23;20017;-69
2022/07/09 04:02:01;;;;;;;22.38;9.88;;;15.60;99.90;;;;;;6217588;23;19941;-70
2022/07/09 04:04:27;;;;;;;17.58;8.73;;;15.50;99.90;;;;;;6191312;23;20465;-69
2022/07/09 04:06:54;;;;;;;14.55;8.25;;;15.60;99.90;;;;;;6217654;23;20052;-68
2022/07/09 04:09:20;;;;;;;16.15;8.30;;;15.50;99.90;;;;;;6217524;23;20017;-69
2022/07/09 04:11:46;;;;;;;16.35;8.70;;;15.60;99.90;;;;;;6217608;23;20315;-69
2022/07/09 04:14:14;;;;;;;16.98;8.52;;;15.60;99.90;;;;;;6217553;23;20024;-70
2022/07/09 04:16:40;;;;;;;18.17;7.55;;;15.60;99.90;;;;;;6217136;23;20346;-69
2022/07/09 04:19:06;;;;;;;16.05;7.53;;;15.50;99.90;;;;;;6217157;23;20446;-71
2022/07/09 04:21:32;;;;;;;17.83;7.32;;;15.60;99.90;;;;;;6190893;23;20019;-70
2022/07/09 04:23:57;;;;;;;16.20;8.38;;;15.50;99.90;;;;;;6190665;23;20342;-69
2022/07/09 04:26:23;;;;;;;13.30;7.30;;;15.50;99.90;;;;;;6217384;23;20463;-69
2022/07/09 04:28:49;;;;;;;19.40;8.38;;;15.50;99.90;;;;;;6217414;23;20019;-69
2022/07/09 04:31:15;;;;;;;14.18;8.02;;;15.50;99.90;;;;;;6217411;23;20087;-70
2022/07/09 04:33:43;;;;;;;18.80;8.00;;;15.50;99.90;;;;;;6217369;23;20067;-70
2022/07/09 04:36:08;;;;;;;15.57;8.15;;;15.50;99.90;;;;;;6217346;23;20024;-70
2022/07/09 04:38:34;;;;;;;15.20;7.68;;;15.50;99.90;;;;;;6217202;23;20017;-69
2022/07/09 04:41:00;;;;;;;18.85;7.63;;;15.50;99.90;;;;;;6217439;23;20024;-69
2022/07/09 04:43:26;;;;;;;22.92;8.10;;;15.50;99.90;;;;;;6165427;23;20438;-70
2022/07/09 04:45:51;;;;;;;13.55;6.88;;;15.50;99.90;;;;;;6217362;23;20308;-69
2022/07/09 04:48:17;;;;;;;21.60;8.38;;;15.50;99.90;;;;;;6190580;23;20013;-69
2022/07/09 04:50:43;;;;;;;14.65;7.05;;;15.50;99.90;;;;;;6217392;23;20016;-70
2022/07/09 04:53:08;;;;;;;17.77;7.50;;;15.60;99.90;;;;;;6216867;23;20013;-68
2022/07/09 04:55:34;;;;;;;18.92;7.32;;;15.60;99.90;;;;;;6190773;23;20019;-69
2022/07/09 04:58:00;;;;;;;14.35;7.45;;;15.60;99.90;;;;;;6190270;23;20095;-69
2022/07/09 05:00:26;;;;;;;15.25;7.68;;;15.60;99.90;;;;;;6217047;23;20021;-69
2022/07/09 05:02:51;;;;;;;17.40;7.30;;;15.60;99.90;;;;;;6190449;23;20016;-68
2022/07/09 05:05:21;;;;;;;12.85;6.43;;;15.60;99.90;;;;;;6217208;23;20311;-68
2022/07/09 05:07:47;;;;;;;14.73;7.50;;;15.60;99.90;;;;;;6190134;23;20012;-69
2022/07/09 05:10:13;;;;;;;15.90;7.05;;;15.70;99.90;;;;;;6217118;23;20025;-70
2022/07/09 05:12:40;;;;;;;14.55;7.43;;;15.70;99.90;;;;;;6216886;23;20017;-69
2022/07/09 05:15:06;;;;;;;19.40;9.35;;;15.70;99.90;;;;;;6216475;23;20024;-70
2022/07/09 05:17:35;;;;;;;;;;;15.70;99.90;;;;;;6217403;23;20441;-69
2022/07/09 05:20:06;;;;;;;12.73;6.47;;;15.80;99.90;;;;;;6190356;23;19920;-69
2022/07/09 05:22:33;;;;;;;16.40;6.53;;;15.80;99.90;;;;;;6190147;23;20052;-70
2022/07/09 05:24:59;;;;;;;11.43;7.03;;;15.80;99.90;;;;;;6216911;23;20024;-68
2022/07/09 05:27:25;;;;;;;;;;;15.90;99.90;;;;;;6217259;23;20349;-70
2022/07/09 05:29:51;;;;;;;12.60;6.15;;;15.90;99.90;;;;;;6216870;23;20057;-71
2022/07/09 05:32:17;;;;;;;8.45;6.15;;;15.90;99.90;;;;;;6190279;23;20020;-70
2022/07/09 05:34:42;;;;;;;15.43;7.00;;;15.90;99.90;;;;;;6216757;23;20015;-68
2022/07/09 05:37:08;;;;;;;10.85;6.38;;;16.20;99.90;;;;;;6190203;23;20020;-69
2022/07/09 05:39:33;;;;;;;12.65;7.30;;;16.00;99.90;;;;;;6189719;23;20024;-70
2022/07/09 05:41:59;;;;;;;13.20;6.28;;;16.00;99.90;;;;;;6216114;23;20056;-70
2022/07/09 05:44:25;;;;;;;15.13;5.80;;;16.00;99.90;;;;;;6190056;23;20020;-69
2022/07/09 05:46:51;;;;;;;16.15;7.40;;;16.10;99.90;;;;;;6165245;23;20044;-68
2022/07/09 05:49:16;;;;;;;13.93;6.35;;;16.10;99.90;;;;;;6216675;23;20016;-68
2022/07/09 05:51:42;;;;;;;11.50;5.45;;;16.10;99.90;;;;;;6216527;23;20349;-70
2022/07/09 05:54:08;;;;;;;12.82;6.18;;;16.10;99.90;;;;;;6216626;23;20075;-68
2022/07/09 05:56:34;;;;;;;12.82;5.50;;;16.10;99.90;;;;;;6216626;23;20016;-69
2022/07/09 05:59:00;;;;;;;13.63;5.60;;;16.10;99.90;;;;;;6216176;23;20363;-69
2022/07/09 06:01:25;;;;;;;11.48;5.45;;;16.20;99.90;;;;;;6216599;23;20017;-69
2022/07/09 06:03:51;;;;;;;12.82;5.00;;;16.20;99.90;;;;;;6215863;23;20389;-69
2022/07/09 06:06:17;;;;;;;11.48;5.22;;;16.20;99.90;;;;;;6189996;23;20023;-69
2022/07/09 06:08:42;;;;;;;12.25;5.63;;;16.20;99.90;;;;;;6216440;23;20020;-68
2022/07/09 06:11:08;;;;;;;13.77;5.18;;;16.20;99.90;;;;;;6190032;23;20342;-70
2022/07/09 06:13:33;;;;;;;13.48;5.57;;;16.20;99.90;;;;;;6189772;23;20101;-70
2022/07/09 06:15:59;;;;;;;12.10;5.20;;;16.30;99.90;;;;;;6216404;23;20078;-70
2022/07/09 06:18:25;;;;;;;11.70;5.40;;;16.30;99.90;;;;;;6216377;23;20017;-70
2022/07/09 06:20:50;;;;;;;12.23;5.43;;;16.30;99.90;;;;;;6216479;23;20091;-69
2022/07/09 06:23:16;;;;;;;10.50;5.53;;;16.30;99.90;;;;;;6189566;23;20056;-69
2022/07/09 06:25:42;;;;;;;10.93;4.75;;;16.30;99.90;;;;;;6216294;23;20020;-69
2022/07/09 06:28:07;;;;;;;10.07;4.95;;;16.30;99.90;;;;;;6216270;23;20052;-68
2022/07/09 06:30:36;;;;;;;9.10;4.75;;;16.40;99.90;;;;;;6216173;23;20095;-69
2022/07/09 06:33:02;;;;;;;10.10;4.82;;;16.40;99.90;;;;;;6190443;23;20024;-69
2022/07/09 06:35:28;;;;;;;9.57;5.38;;;16.40;99.90;;;;;;6189599;23;20016;-70
2022/07/09 06:37:53;;;;;;;15.27;4.85;;;16.40;99.90;;;;;;6216119;23;20079;-70
2022/07/09 06:40:19;;;;;;;12.43;4.57;;;16.40;99.90;;;;;;6215799;23;20397;-69
2022/07/09 06:42:45;;;;;;;9.25;4.03;;;16.50;99.90;;;;;;6215981;23;20008;-69
2022/07/09 06:45:10;;;;;;;9.40;5.28;;;16.50;99.90;;;;;;6216346;23;20097;-69
2022/07/09 06:47:36;;;;;;;16.23;4.90;;;16.50;99.90;;;;;;6216166;23;20333;-70
2022/07/09 06:50:02;;;;;;;11.23;4.50;;;16.50;99.90;;;;;;6216085;23;20354;-69
2022/07/09 06:52:28;;;;;;;13.18;4.47;;;16.60;99.90;;;;;;6215845;23;20465;-70
2022/07/09 06:54:54;;;;;;;15.48;4.70;;;16.50;99.90;;;;;;6215959;23;20016;-70
2022/07/09 06:57:20;;;;;;;8.70;4.43;;;16.60;99.90;;;;;;6214635;23;20330;-69
2022/07/09 06:59:45;;;;;;;8.65;4.63;;;16.60;99.90;;;;;;6215934;23;20338;-70
2022/07/09 07:02:12;;;;;;;15.65;5.55;;;16.60;99.90;;;;;;6216221;23;20025;-70
2022/07/09 07:04:38;;;;;;;8.35;4.10;;;16.60;99.90;;;;;;6215486;23;20023;-70
2022/07/09 07:07:04;;;;;;;17.20;5.50;;;16.60;99.90;;;;;;6215913;23;20016;-68
2022/07/09 07:09:30;;;;;;;11.25;4.22;;;16.60;99.90;;;;;;6215818;23;20047;-69
2022/07/09 07:11:56;;;;;;;8.13;4.68;;;16.70;99.90;;;;;;6215896;23;20023;-70
2022/07/09 07:14:22;;;;;;;8.65;3.30;;;16.70;99.90;;;;;;6215785;23;20024;-69
2022/07/09 07:16:47;;;;;;;11.55;3.88;;;16.70;99.90;;;;;;6215880;23;20393;-69
2022/07/09 07:19:13;;;;;;;10.40;4.00;;;16.70;99.90;;;;;;6215495;23;20020;-69
2022/07/09 07:21:39;;;;;;;7.82;3.45;;;16.70;99.90;;;;;;6215982;23;20016;-69
2022/07/09 07:24:06;;;;;;;8.18;3.70;;;16.70;99.90;;;;;;6189093;23;20024;-69
2022/07/09 07:26:32;;;;;;;8.40;3.47;;;16.80;99.90;;;;;;6215641;23;20065;-70
2022/07/09 07:28:58;;;;;;;8.23;3.65;;;16.80;99.90;;;;;;6215971;23;20021;-70
2022/07/09 07:31:24;;;;;;;10.80;3.47;;;16.80;99.90;;;;;;6189231;23;20426;-70
2022/07/09 07:33:50;;;;;;;8.15;2.72;;;16.90;99.90;;;;;;6215823;23;20092;-69
2022/07/09 07:36:16;;;;;;;6.40;2.40;;;16.90;99.90;;;;;;6215825;23;20091;-69
2022/07/09 07:38:42;;;;;;;8.40;3.17;;;17.00;99.90;;;;;;6215582;23;20041;-70
2022/07/09 07:41:08;;;;;;;7.47;2.55;;;16.90;99.90;;;;;;6189182;23;20017;-69
2022/07/09 07:43:33;;;;;;;8.90;3.20;;;16.90;99.90;;;;;;6188911;23;20071;-71
2022/07/09 07:45:59;;;;;;;;;;;17.00;99.90;;;;;;6216227;23;20021;-68
2022/07/09 07:48:27;;;;;;;6.07;3.03;;;17.10;99.90;;;;;;6215750;23;20007;-68
2022/07/09 07:50:54;;;;;;;4.40;2.80;;;17.10;99.90;;;;;;6215327;23;20420;-69
2022/07/09 07:53:20;;;;;;;6.18;2.17;;;17.10;99.90;;;;;;6215651;23;20012;-68
2022/07/09 07:55:46;;;;;;;6.55;2.95;;;17.20;99.90;;;;;;6215627;23;20017;-69
2022/07/09 07:58:12;;;;;;;10.30;2.85;;;17.20;99.90;;;;;;6215703;23;20342;-70
2022/07/09 08:00:37;;;;;;;5.22;2.13;;;17.20;99.90;;;;;;6215591;23;20096;-69
2022/07/09 08:03:03;;;;;;;5.97;2.10;;;17.30;99.90;;;;;;6215545;23;20493;-70
2022/07/09 08:05:29;;;;;;;4.90;1.85;;;17.30;99.90;;;;;;6215327;23;20016;-70
2022/07/09 08:08:10;;;;;;;;;;;17.40;99.90;;;;;;6216127;23;20096;-68
2022/07/09 08:10:36;;;;;;;5.15;1.80;;;17.40;99.90;;;;;;6214576;23;19916;-68
2022/07/09 08:13:02;;;;;;;9.93;1.52;;;17.50;99.90;;;;;;6214611;23;20311;-71
2022/07/09 08:15:27;;;;;;;4.50;2.58;;;17.60;99.90;;;;;;6215123;23;20386;-69
2022/07/09 08:17:53;;;;;;;3.45;2.08;;;17.70;99.90;;;;;;6215584;23;20019;-69
2022/07/09 08:20:19;;;;;;;4.60;1.90;;;17.70;99.90;;;;;;6215130;23;20043;-70
2022/07/09 08:22:45;;;;;;;2.10;1.40;;;17.80;99.90;;;;;;6215536;23;20009;-68
2022/07/09 08:25:12;;;;;;;4.93;2.10;;;17.80;99.90;;;;;;6214576;23;20074;-70
2022/07/09 08:27:37;;;;;;;5.97;1.85;;;17.80;99.90;;;;;;6216461;23;20021;-68
2022/07/09 08:30:04;;;;;;;4.28;1.85;;;17.80;99.90;;;;;;6190784;23;20023;-69
2022/07/09 08:32:29;;;;;;;;;;;17.90;99.90;;;;;;6217470;23;20889;-69
2022/07/09 08:34:55;;;;;;;3.70;1.45;;;18.00;99.90;;;;;;6217299;23;19916;-68
2022/07/09 08:37:20;;;;;;;6.20;1.70;;;18.00;99.90;;;;;;6217357;23;20457;-68
2022/07/09 08:39:46;;;;;;;4.05;2.42;;;18.00;99.90;;;;;;6216880;23;20496;-70
2022/07/09 08:42:12;;;;;;;3.17;1.23;;;18.00;99.90;;;;;;6216766;23;20512;-71
2022/07/09 08:44:42;;;;;;;3.70;1.55;;;18.10;99.90;;;;;;6217232;23;20012;-68
2022/07/09 08:47:13;;;;;;;2.53;0.95;;;18.10;99.90;;;;;;6217245;23;20057;-70
2022/07/09 08:49:40;;;;;;;4.47;1.40;;;18.10;99.90;;;;;;6217085;23;20020;-69
2022/07/09 08:52:07;;;;;;;4.15;1.40;;;18.20;99.90;;;;;;6217167;23;20012;-68
2022/07/09 08:54:37;;;;;;;1.98;1.15;;;18.20;99.90;;;;;;6216708;23;20412;-69
2022/07/09 08:57:04;;;;;;;5.88;1.55;;;18.20;99.90;;;;;;6217028;23;20087;-69
2022/07/09 08:59:31;;;;;;;5.75;1.20;;;18.20;99.90;;;;;;6217067;23;20071;-69
2022/07/09 09:01:56;;;;;;;;;;;18.20;99.90;;;;;;6217411;23;20319;-69
2022/07/09 09:04:23;;;;;;;4.07;1.50;;;18.20;99.90;;;;;;6216893;23;19923;-69
2022/07/09 09:06:50;;;;;;;1.63;1.10;;;18.20;99.90;;;;;;6165634;23;20446;-70
2022/07/09 09:09:19;;;;;;;2.95;1.25;;;18.20;99.90;;;;;;6190412;23;20016;-70
2022/07/09 09:11:50;;;;;;;3.63;1.50;;;18.30;99.90;;;;;;6217038;23;20016;-69
2022/07/09 09:14:22;;;;;;;3.83;1.33;;;18.20;99.90;;;;;;6190296;23;20017;-69
2022/07/09 09:16:49;;;;;;;4.32;1.27;;;18.20;99.90;;;;;;6216935;23;20013;-69
2022/07/09 09:19:14;;;;;;;;;;;18.30;99.90;;;;;;6190769;23;20453;-69
2022/07/09 09:21:40;;;;;;;7.72;1.73;;;18.30;99.90;;;;;;6216930;23;19916;-69
2022/07/09 09:24:06;;;;;;;4.63;1.80;;;18.40;99.90;;;;;;6216720;23;20020;-68
2022/07/09 09:26:35;;;;;;;;;;;18.50;99.90;;;;;;6217194;23;20024;-68
2022/07/09 09:29:04;;;;;;;4.45;1.70;;;18.50;99.90;;;;;;6216828;23;19938;-70
2022/07/09 09:31:35;;;;;;;4.38;1.60;;;18.50;99.90;;;;;;6216810;23;20021;-69
2022/07/09 09:34:09;;;;;;;7.95;2.50;;;18.50;99.90;;;;;;6189581;23;20315;-70
2022/07/09 09:36:39;;;;;;;3.28;1.30;;;18.60;99.90;;;;;;6216697;23;20039;-69
2022/07/09 09:39:10;;;;;;;3.20;1.08;;;18.60;99.90;;;;;;6216449;23;20028;-69
2022/07/09 09:41:36;;;;;;;2.15;1.20;;;18.60;99.90;;;;;;6216569;23;20066;-69
2022/07/09 09:44:10;;;;;;;2.65;1.60;;;18.60;99.90;;;;;;6216551;23;20064;-69
2022/07/09 09:46:40;;;;;;;5.07;1.20;;;18.70;99.90;;;;;;6216587;23;20346;-70
2022/07/09 09:49:10;;;;;;;4.88;1.40;;;18.80;99.90;;;;;;6216536;23;20012;-69
2022/07/09 09:51:47;;;;;;;5.38;1.50;;;18.80;99.90;;;;;;6216633;23;20016;-69
2022/07/09 09:54:14;;;;;;;2.45;1.40;;;18.80;99.90;;;;;;6216471;23;20017;-70
2022/07/09 09:56:40;;;;;;;2.60;1.00;;;18.80;99.90;;;;;;6216457;23;20028;-69
2022/07/09 09:59:05;;;;;;;4.95;1.55;;;18.90;99.90;;;;;;6216460;23;20020;-71
2022/07/09 10:01:32;;;;;;;3.80;1.65;;;18.90;99.90;;;;;;6189920;23;20146;-70
2022/07/09 10:04:01;;;;;;;4.93;1.38;;;18.90;99.90;;;;;;6190103;23;20020;-73
2022/07/09 10:06:27;;;;;;;2.33;1.20;;;18.90;99.90;;;;;;6216400;23;20020;-70
2022/07/09 10:08:54;;;;;;;3.70;1.50;;;18.90;99.90;;;;;;6216319;23;20020;-69
2022/07/09 10:11:21;;;;;;;2.72;0.93;;;18.80;99.90;;;;;;6189799;23;20430;-70
2022/07/09 10:13:54;;;;;;;5.30;1.45;;;18.70;99.90;;;;;;6216373;23;20017;-69
2022/07/09 10:16:33;;;;;;;3.00;1.17;;;18.70;99.90;;;;;;6216071;23;20442;-70
2022/07/09 10:18:59;;;;;;;4.57;1.25;;;18.60;99.90;;;;;;6190010;23;20324;-70
2022/07/09 10:21:33;;;;;;;5.30;1.20;;;18.60;99.90;;;;;;6189292;23;20143;-70
2022/07/09 10:23:58;;;;;;;4.55;1.20;;;18.70;99.90;;;;;;6189606;23;20346;-71
2022/07/09 10:26:46;;;;;;;2.83;0.82;;;18.80;99.90;;;;;;6216123;23;20016;-70
2022/07/09 10:29:26;;;;;;;2.75;1.00;;;18.90;99.90;;;;;;6192558;23;20016;-69
2022/07/09 10:31:53;;;;;;;6.93;2.10;;;19.00;99.90;;;;;;6189642;23;20082;-68
2022/07/09 10:34:32;;;;;;;4.20;1.35;;;19.00;99.90;;;;;;6216206;23;20027;-71
2022/07/09 10:37:02;;;;;;;2.25;1.00;;;19.00;99.90;;;;;;6216186;23;20074;-69
2022/07/09 10:39:29;;;;;;;4.20;1.60;;;19.00;99.90;;;;;;6216105;23;20009;-69
2022/07/09 10:42:18;;;;;;;4.65;1.27;;;19.00;99.90;;;;;;6163624;23;20387;-69
2022/07/09 10:44:45;;;;;;;3.70;1.48;;;19.00;99.90;;;;;;6215985;23;20366;-69
2022/07/09 10:47:11;;;;;;;2.25;1.10;;;19.10;99.90;;;;;;6215978;23;20132;-69
2022/07/09 10:49:37;;;;;;;4.05;1.20;;;19.00;99.90;;;;;;6189132;23;20055;-68
2022/07/09 10:52:04;;;;;;;;;;;19.10;99.90;;;;;;6216225;23;20020;-69
2022/07/09 10:54:30;;;;;;;6.38;1.45;;;19.10;99.90;;;;;;6215912;23;19952;-69
2022/07/09 10:56:56;;;;;;;;;;;19.10;99.90;;;;;;6216504;23;20024;-70
2022/07/09 10:59:22;;;;;;;3.35;1.60;;;19.20;99.90;;;;;;6189443;23;20344;-69
2022/07/09 11:01:50;;;;;;;2.63;1.20;;;19.20;99.90;;;;;;6215856;23;20016;-69
2022/07/09 11:04:30;;;;;;;3.70;1.20;;;19.10;99.90;;;;;;6189353;23;20087;-71
2022/07/09 11:06:56;;;;;;;3.00;0.88;;;18.80;99.90;;;;;;6216062;23;20334;-71
2022/07/09 11:09:25;;;;;;;2.50;1.50;;;18.60;99.90;;;;;;6215493;23;20056;-70
2022/07/09 11:11:58;;;;;;;3.10;1.30;;;18.40;99.90;;;;;;6215906;23;20017;-69
2022/07/09 11:14:24;;;;;;;3.20;1.17;;;18.20;99.90;;;;;;6215526;23;20016;-69
2022/07/09 11:16:54;;;;;;;3.72;1.13;;;18.00;99.90;;;;;;6215965;23;20110;-69
2022/07/09 11:19:21;;;;;;;4.03;1.63;;;17.90;99.90;;;;;;6188350;23;20122;-68
2022/07/09 11:21:47;;;;;;;5.35;1.58;;;17.80;99.90;;;;;;6215673;23;20016;-70
2022/07/09 11:24:22;;;;;;;9.40;2.13;;;17.80;99.90;;;;;;6215638;23;20016;-69
2022/07/09 11:26:47;;;;;;;4.30;1.73;;;17.80;99.90;;;;;;6215680;23;20017;-70
2022/07/09 11:29:16;;;;;;;9.95;2.10;;;17.80;99.90;;;;;;6214903;23;20027;-70
2022/07/09 11:31:52;;;;;;;4.53;1.98;;;17.90;99.90;;;;;;6215098;23;20055;-69
2022/07/09 11:34:20;;;;;;;3.85;1.30;;;18.00;99.90;;;;;;6215489;23;20024;-69
2022/07/09 11:36:51;;;;;;;8.65;1.95;;;18.00;99.90;;;;;;6214958;23;20052;-69
2022/07/09 11:39:32;;;;;;;5.30;1.33;;;18.10;99.90;;;;;;6215389;23;20146;-70
2022/07/09 11:41:59;;;;;;;4.70;1.98;;;18.10;99.90;;;;;;6214224;23;20016;-69
2022/07/09 11:44:26;;;;;;;4.25;1.27;;;18.00;99.90;;;;;;6215526;23;20031;-71
2022/07/09 11:47:08;;;;;;;5.82;1.80;;;18.00;99.90;;;;;;6215527;23;20020;-69
2022/07/09 11:49:43;;;;;;;4.30;1.63;;;17.90;99.90;;;;;;6215456;23;20016;-69
2022/07/09 11:52:18;;;;;;;4.53;1.15;;;17.90;99.90;;;;;;6215586;23;20016;-69
2022/07/09 11:55:01;;;;;;;5.60;1.27;;;17.80;99.90;;;;;;6188854;23;20052;-69
2022/07/09 11:57:29;;;;;;;4.45;1.30;;;17.80;99.90;;;;;;6215306;23;20017;-70
2022/07/09 11:59:55;;;;;;;4.35;1.25;;;17.80;99.90;;;;;;6215433;23;20021;-69
2022/07/09 12:02:33;;;;;;;3.63;1.23;;;17.80;99.90;;;;;;6217192;23;20017;-70
2022/07/09 12:05:00;;;;;;;3.38;1.20;;;17.90;99.90;;;;;;6190877;23;20024;-70
2022/07/09 12:07:27;;;;;;;4.13;1.15;;;17.80;99.90;;;;;;6217404;23;20112;-70
2022/07/09 12:10:05;;;;;;;4.38;1.27;;;17.80;99.90;;;;;;6217192;23;20017;-69
2022/07/09 12:12:32;;;;;;;5.50;1.25;;;17.90;99.90;;;;;;6217157;23;20021;-69
2022/07/09 12:14:59;;;;;;;3.20;1.25;;;17.90;99.90;;;;;;6217411;23;20099;-69
2022/07/09 12:17:27;;;;;;;4.32;1.02;;;18.00;99.90;;;;;;6190646;23;20346;-69
2022/07/09 12:19:55;;;;;;;4.65;1.20;;;18.00;99.90;;;;;;6217166;23;20020;-71
2022/07/09 12:22:23;;;;;;;2.50;0.57;;;18.10;99.90;;;;;;6216867;23;20020;-69
2022/07/09 12:24:51;;;;;;;3.95;1.27;;;18.10;99.90;;;;;;6190577;23;20024;-70
2022/07/09 12:27:17;;;;;;;4.88;0.80;;;18.10;99.90;;;;;;6216671;23;20063;-69
2022/07/09 12:29:43;;;;;;;2.60;0.75;;;18.10;99.90;;;;;;6190571;23;20341;-69
2022/07/09 12:32:09;;;;;;;8.02;0.80;;;18.10;99.90;;;;;;6217154;23;20020;-69
2022/07/09 12:34:35;;;;;;;5.50;0.95;;;18.10;99.90;;;;;;6216976;23;20016;-69
2022/07/09 12:37:02;;;;;;;2.15;0.57;;;18.10;99.90;;;;;;6217035;23;20024;-71
2022/07/09 12:39:29;;;;;;;3.35;0.60;;;18.10;99.90;;;;;;6216887;23;20078;-69
2022/07/09 12:42:01;;;;;;;2.70;0.73;;;18.20;99.90;;;;;;6216097;23;20462;-70
2022/07/09 12:44:30;;;;;;;3.33;0.80;;;18.10;99.90;;;;;;6216634;23;20027;-70